Tuesday, May 22, 2018, 5:46 AM GMT
Back to Local

CWWB, Burlington Piers

Location: , , Canada Lat: 43.3
Local Time: 5:46 AM GMT ( 5:46 GMT) Lon: -79.8
Time Zone: GMT Elev: 252 ft

Show me the last for .
Show Coded

Time T Td Feel RH Dir Speed Gust Alt SLP Vis Weather Sky Remarks
2018-05-22 05:00 59 31 - 35 20° 3 - - 30.07 0 None
2018-05-22 04:00 58 32 - 37 350° 3 - - 30.11 0 None
2018-05-22 03:00 57 35 - 43 50° 5 - - 30.11 0 None
2018-05-22 02:00 58 36 - 44 50° 5 - - 30.11 0 None
2018-05-22 01:00 58 32 - 36 50° 3 - - 30.11 0 None
2018-05-22 00:00 59 31 - 35 320° 2 - - 30.14 0 None
2018-05-21 23:00 56 40 - 54 130° 1 - - 30.13 0 None
2018-05-21 22:00 56 38 - 50 130° 7 - - 30.15 0 None
2018-05-21 21:00 55 44 - 67 120° 7 - - 30.15 0 None
2018-05-21 20:00 57 43 - 59 80° 6 - - 30.18 0 None
2018-05-21 19:00 58 42 - 55 40° 7 - - 30.20 0 None
2018-05-21 18:00 59 31 - 35 40° 7 - - 30.21 0 None
2018-05-21 17:00 57 37 - 46 50° 5 - - 30.24 0 None
2018-05-21 16:00 56 35 - 45 30° 3 - - 30.26 0 None
2018-05-21 15:00 53 36 - 53 20° 3 - - 30.27 0 None
2018-05-21 14:00 55 40 - 56 40° 1 - - 30.27 0 None
2018-05-21 13:00 53 39 - 57 110° 1 - - 30.27 0 None
2018-05-21 12:00 53 41 - 64 - Calm - - 30.26 0 None
2018-05-21 11:00 54 47 - 75 - Calm - - 30.25 0 None
2018-05-21 10:00 50 46 - 87 - Calm - - 30.23 0 None
2018-05-21 09:00 50 46 - 86 - Calm - - 30.22 0 None
2018-05-21 08:00 51 45 - 81 150° 1 - - 30.22 0 None
2018-05-21 07:00 52 45 - 76 30° 3 - - 30.21 0 None
2018-05-21 06:00 53 44 - 69 20° 2 - - 30.19 0 None

Support USWX by starting your Amazon purchase here.